Time;durP1;ratioP1;P1;durP2;ratioP2;P2;SDS_P1;SDS_P2;PMS_P1;PMS_P2;Temp;Humidity;BMP_temperature;BMP_pressure;BME280_temperature;BME280_humidity;BME280_pressure;Samples;Min_cycle;Max_cycle;Signal;HPM_P1;HPM_P2
2023/01/29 00:01:33;;;;;;;15.53;9.60;;;-0.50;99.90;;;;;;4767820;30;20189;-81
2023/01/29 00:03:59;;;;;;;13.80;9.67;;;-0.50;99.90;;;;;;4767344;30;20286;-81
2023/01/29 00:06:25;;;;;;;14.37;9.77;;;-0.40;99.90;;;;;;4767978;30;20669;-82
2023/01/29 00:08:50;;;;;;;15.67;9.70;;;-0.40;99.90;;;;;;4768170;30;20177;-81
2023/01/29 00:11:16;;;;;;;14.17;9.90;;;-0.50;99.90;;;;;;4752903;30;20189;-82
2023/01/29 00:13:42;;;;;;;15.10;10.47;;;-0.50;99.90;;;;;;4767471;30;20219;-82
2023/01/29 00:16:08;;;;;;;18.77;10.17;;;-0.50;99.90;;;;;;4753241;30;20188;-82
2023/01/29 00:18:38;;;;;;;17.03;10.50;;;-0.50;99.90;;;;;;4767379;30;20340;-82
2023/01/29 00:21:07;;;;;;;14.47;9.90;;;-0.40;99.90;;;;;;4754093;30;20220;-83
2023/01/29 00:23:32;;;;;;;15.53;9.80;;;-0.50;99.90;;;;;;4753595;30;20531;-82
2023/01/29 00:25:59;;;;;;;14.20;9.60;;;-0.50;99.90;;;;;;4753574;30;20196;-82
2023/01/29 00:28:24;;;;;;;15.37;9.97;;;-0.50;99.90;;;;;;4752689;30;20224;-83
2023/01/29 00:30:50;;;;;;;16.27;10.43;;;-0.40;99.90;;;;;;4752647;30;20581;-83
2023/01/29 00:33:16;;;;;;;14.93;10.10;;;-0.50;99.90;;;;;;4753665;30;20530;-83
2023/01/29 00:35:41;;;;;;;16.70;10.40;;;-0.40;99.90;;;;;;4753557;30;20198;-83
2023/01/29 00:38:09;;;;;;;16.23;10.37;;;-0.40;99.90;;;;;;4752461;30;20610;-83
2023/01/29 00:46:08;;;;;;;15.60;10.20;;;-0.40;99.90;;;;;;4754367;30;20235;-83
2023/01/29 00:48:34;;;;;;;17.33;10.53;;;-0.40;99.90;;;;;;4752326;30;20216;-82
2023/01/29 00:51:02;;;;;;;15.27;10.57;;;-0.30;99.90;;;;;;4751669;30;20208;-82
2023/01/29 00:53:27;;;;;;;16.63;9.73;;;-0.30;99.90;;;;;;4766935;30;20189;-81
2023/01/29 00:55:53;;;;;;;17.17;9.80;;;-0.30;99.90;;;;;;4767095;30;20193;-82
2023/01/29 00:58:21;;;;;;;13.63;9.20;;;-0.30;99.90;;;;;;4767111;30;20569;-82
2023/01/29 01:00:50;;;;;;;15.70;10.03;;;-0.20;99.90;;;;;;4767037;30;20185;-82
2023/01/29 01:03:16;;;;;;;13.83;9.93;;;-0.20;99.90;;;;;;4766546;30;20188;-81
2023/01/29 01:05:42;;;;;;;15.10;9.93;;;-0.20;99.90;;;;;;4766880;30;20708;-82
2023/01/29 01:11:05;;;;;;;16.67;10.67;;;-0.20;99.90;;;;;;4753036;30;20203;-82
2023/01/29 01:13:33;;;;;;;18.80;10.70;;;-0.20;99.90;;;;;;4751571;30;20192;-82
2023/01/29 01:15:59;;;;;;;17.60;9.93;;;-0.20;99.90;;;;;;4751791;30;20196;-82
2023/01/29 01:18:28;;;;;;;14.33;9.67;;;-0.20;99.90;;;;;;4753009;30;20251;-83
2023/01/29 01:20:57;;;;;;;17.57;10.37;;;-0.20;99.90;;;;;;4753142;30;20191;-81
2023/01/29 01:23:22;;;;;;;16.40;9.13;;;-0.20;99.90;;;;;;4751505;30;20189;-82
2023/01/29 01:25:48;;;;;;;17.50;9.73;;;-0.20;99.90;;;;;;4752791;30;20216;-82
2023/01/29 01:28:14;;;;;;;13.83;10.00;;;-0.20;99.90;;;;;;4751793;30;20283;-81
2023/01/29 01:30:40;;;;;;;16.17;10.30;;;-0.20;99.90;;;;;;4753041;30;20185;-85
2023/01/29 01:33:05;;;;;;;16.77;10.47;;;-0.20;99.90;;;;;;4751448;30;20188;-82
2023/01/29 01:35:31;;;;;;;20.73;10.00;;;-0.20;99.90;;;;;;4751596;30;20193;-81
2023/01/29 01:37:57;;;;;;;16.57;10.43;;;-0.20;99.90;;;;;;4751743;30;20200;-82
2023/01/29 01:40:24;;;;;;;13.60;9.43;;;-0.20;99.90;;;;;;4751826;30;20232;-82
2023/01/29 01:42:55;;;;;;;16.50;9.90;;;-0.20;99.90;;;;;;4766004;30;20279;-83
2023/01/29 01:45:28;;;;;;;15.40;10.57;;;-0.20;99.90;;;;;;4766588;30;20635;-81
2023/01/29 01:48:03;;;;;;;15.60;9.70;;;-0.20;99.90;;;;;;4752891;30;20213;-83
2023/01/29 01:50:41;;;;;;;17.73;10.30;;;-0.20;99.90;;;;;;4766348;30;20192;-82
2023/01/29 01:53:10;;;;;;;15.83;9.83;;;-0.30;99.90;;;;;;4766346;30;20185;-81
2023/01/29 01:55:43;;;;;;;15.13;10.20;;;-0.30;99.90;;;;;;4766287;30;20192;-81
2023/01/29 01:58:13;;;;;;;17.67;9.67;;;-0.30;99.90;;;;;;4752660;30;20614;-82
2023/01/29 02:00:41;;;;;;;14.33;9.60;;;-0.30;99.90;;;;;;4752900;30;20188;-83
2023/01/29 02:11:45;;;;;;;15.80;10.13;;;-0.30;99.90;;;;;;4735249;30;20221;-82
2023/01/29 02:14:11;;;;;;;15.37;10.27;;;-0.30;99.90;;;;;;4734902;30;20209;-82
2023/01/29 02:16:37;;;;;;;14.23;9.17;;;-0.30;99.90;;;;;;4748464;30;20204;-81
2023/01/29 02:19:08;;;;;;;15.83;9.90;;;-0.30;99.90;;;;;;4748440;30;20673;-82
2023/01/29 02:21:43;;;;;;;16.23;10.63;;;-0.30;99.90;;;;;;4748959;30;20201;-81
2023/01/29 02:24:41;;;;;;;15.93;10.13;;;-0.30;99.90;;;;;;4748359;30;20193;-82
2023/01/29 02:27:14;;;;;;;14.30;9.80;;;-0.30;99.90;;;;;;4735205;30;20188;-82
2023/01/29 02:30:05;;;;;;;18.90;10.67;;;-0.30;99.90;;;;;;4748521;30;20619;-82
2023/01/29 02:32:53;;;;;;;15.10;9.80;;;-0.20;99.90;;;;;;4734778;30;20185;-81
2023/01/29 02:35:31;;;;;;;14.30;9.47;;;-0.20;99.90;;;;;;4748307;30;20646;-83
2023/01/29 02:38:39;;;;;;;14.80;9.67;;;-0.20;99.90;;;;;;4749131;30;20630;-82
2023/01/29 02:41:15;;;;;;;15.07;9.47;;;-0.20;99.90;;;;;;4767273;30;20231;-83
2023/01/29 02:43:54;;;;;;;18.00;10.67;;;-0.20;99.90;;;;;;4754338;30;20186;-82
2023/01/29 02:46:50;;;;;;;18.13;10.27;;;-0.20;99.90;;;;;;4754636;30;20201;-82
2023/01/29 02:49:44;;;;;;;19.23;11.00;;;-0.20;99.90;;;;;;4745077;30;20204;-82
2023/01/29 02:52:15;;;;;;;17.33;10.37;;;-0.10;99.90;;;;;;4754266;30;20180;-83
2023/01/29 02:54:55;;;;;;;18.23;10.70;;;-0.10;99.90;;;;;;4755494;30;20220;-82
2023/01/29 02:57:27;;;;;;;16.17;10.23;;;-0.10;99.90;;;;;;4754616;30;20180;-82
2023/01/29 03:00:19;;;;;;;17.70;10.70;;;-0.10;99.90;;;;;;4753967;30;20231;-82
2023/01/29 03:03:23;;;;;;;16.90;10.97;;;-0.10;99.90;;;;;;4753425;30;20258;-82
2023/01/29 03:06:24;;;;;;;16.93;10.57;;;0.00;99.90;;;;;;4753743;30;20271;-82
2023/01/29 03:08:58;;;;;;;16.40;10.53;;;0.00;99.90;;;;;;4751340;30;20582;-82
2023/01/29 03:11:30;;;;;;;15.60;10.17;;;0.00;99.90;;;;;;4754010;30;20195;-83
2023/01/29 03:14:04;;;;;;;19.27;11.07;;;0.00;99.90;;;;;;4753919;30;20207;-81
2023/01/29 03:16:41;;;;;;;15.37;10.20;;;0.00;99.90;;;;;;4753863;30;20304;-83
2023/01/29 03:19:23;;;;;;;19.37;11.53;;;-0.10;99.90;;;;;;4753727;30;20225;-82
2023/01/29 03:21:58;;;;;;;19.20;11.20;;;0.00;99.90;;;;;;4753767;30;20617;-82
2023/01/29 03:34:03;;;;;;;17.80;11.07;;;-0.10;99.90;;;;;;4754971;30;20180;-84
2023/01/29 03:36:37;;;;;;;18.73;11.80;;;-0.10;99.90;;;;;;4754454;30;20193;-82
2023/01/29 03:39:08;;;;;;;19.53;11.20;;;-0.10;99.90;;;;;;4753534;30;20231;-83
2023/01/29 03:41:47;;;;;;;19.77;11.77;;;-0.10;99.90;;;;;;4754781;30;20185;-82
2023/01/29 03:44:26;;;;;;;19.17;12.50;;;-0.10;99.90;;;;;;4754469;30;20172;-83
2023/01/29 03:46:56;;;;;;;24.67;12.00;;;-0.10;99.90;;;;;;4753453;30;20257;-81
2023/01/29 03:49:57;;;;;;;18.57;11.93;;;-0.10;99.90;;;;;;5149453;24;20279;-81
2023/01/29 03:53:01;;;;;;;21.33;12.97;;;-0.20;99.90;;;;;;4751581;30;20206;-81
2023/01/29 03:56:06;;;;;;;21.23;12.63;;;-0.20;99.90;;;;;;4763764;30;20631;-81
2023/01/29 03:58:46;;;;;;;20.40;12.47;;;-0.20;99.90;;;;;;4741938;30;20220;-86
2023/01/29 04:01:51;;;;;;;21.83;13.43;;;-0.20;99.90;;;;;;4772862;30;20275;-87
2023/01/29 04:04:25;;;;;;;24.00;14.10;;;-0.20;99.90;;;;;;4702391;30;20185;-82
2023/01/29 04:06:55;;;;;;;20.23;13.07;;;-0.20;99.90;;;;;;4765736;30;20238;-82
2023/01/29 04:09:56;;;;;;;21.63;13.50;;;-0.20;99.90;;;;;;4772023;29;20185;-88
2023/01/29 04:12:28;;;;;;;28.23;13.13;;;-0.20;99.90;;;;;;4765177;30;20724;-85
2023/01/29 04:14:56;;;;;;;24.53;13.23;;;-0.20;99.90;;;;;;4755251;30;20220;-89
2023/01/29 04:17:31;;;;;;;23.67;13.53;;;-0.20;99.90;;;;;;4753428;30;20702;-85
2023/01/29 04:19:59;;;;;;;22.30;13.20;;;-0.20;99.90;;;;;;4753752;30;20213;-84
2023/01/29 04:22:46;;;;;;;23.73;13.47;;;-0.20;99.90;;;;;;4754594;30;20176;-85
2023/01/29 04:25:25;;;;;;;21.03;12.40;;;-0.20;99.90;;;;;;4755063;30;20189;-82
2023/01/29 04:28:09;;;;;;;24.50;14.20;;;-0.10;99.90;;;;;;4754225;30;20165;-84
2023/01/29 04:30:59;;;;;;;20.30;12.87;;;-0.20;99.90;;;;;;4753944;30;20268;-82
2023/01/29 04:33:34;;;;;;;22.17;13.30;;;-0.20;99.90;;;;;;4753537;30;20181;-82
2023/01/29 04:36:26;;;;;;;18.40;12.40;;;-0.20;99.90;;;;;;4752328;30;20189;-83
2023/01/29 04:39:24;;;;;;;24.90;14.90;;;-0.20;99.90;;;;;;4746570;30;20677;-83
2023/01/29 04:42:16;;;;;;;21.00;12.47;;;-0.10;99.90;;;;;;4770258;30;20196;-83
2023/01/29 04:45:06;;;;;;;19.77;12.77;;;-0.20;99.90;;;;;;4747203;30;20218;-82
2023/01/29 04:47:44;;;;;;;23.97;12.80;;;-0.20;99.90;;;;;;4770313;30;20192;-85
2023/01/29 04:50:25;;;;;;;21.90;13.50;;;-0.20;99.90;;;;;;4770888;30;20272;-82
2023/01/29 04:53:05;;;;;;;20.83;12.80;;;-0.20;99.90;;;;;;4771229;30;20646;-85
2023/01/29 04:55:50;;;;;;;20.00;12.30;;;-0.20;99.90;;;;;;4769995;30;20186;-83
2023/01/29 04:59:03;;;;;;;28.43;13.67;;;-0.30;99.90;;;;;;4771244;30;20188;-81
2023/01/29 05:01:32;;;;;;;21.93;12.57;;;-0.20;99.90;;;;;;4770704;30;20179;-86
2023/01/29 05:04:02;;;;;;;21.60;12.93;;;-0.30;99.90;;;;;;4771292;30;20223;-84
2023/01/29 05:06:29;;;;;;;23.10;13.40;;;-0.30;99.90;;;;;;4771593;30;20195;-87
2023/01/29 05:08:56;;;;;;;23.50;13.60;;;-0.30;99.90;;;;;;4770459;30;20192;-82
2023/01/29 05:11:23;;;;;;;19.97;12.67;;;-0.40;99.90;;;;;;4770114;30;20200;-84
2023/01/29 05:13:50;;;;;;;21.37;12.80;;;-0.30;99.90;;;;;;4771271;30;20259;-88
2023/01/29 05:16:25;;;;;;;21.70;12.93;;;-0.40;99.90;;;;;;4770379;30;20195;-85
2023/01/29 05:18:51;;;;;;;22.57;12.93;;;-0.40;99.90;;;;;;4771423;30;20216;-84
2023/01/29 05:21:22;;;;;;;21.47;13.63;;;-0.50;99.90;;;;;;4769202;30;20291;-86
2023/01/29 05:24:07;;;;;;;18.43;11.63;;;-0.40;99.90;;;;;;4771165;30;20203;-87
2023/01/29 05:29:19;;;;;;;19.90;12.67;;;-0.50;99.90;;;;;;4771742;30;20174;-83
2023/01/29 05:31:51;;;;;;;21.50;12.77;;;-0.50;99.90;;;;;;4770117;30;20207;-87
2023/01/29 05:34:17;;;;;;;22.07;13.20;;;-0.50;99.90;;;;;;4771273;30;20180;-88
2023/01/29 05:36:43;;;;;;;21.50;12.37;;;-0.40;99.90;;;;;;4771019;30;20275;-86
2023/01/29 05:39:08;;;;;;;22.07;12.43;;;-0.40;99.90;;;;;;4771535;30;20216;-87
2023/01/29 05:41:36;;;;;;;21.83;12.73;;;-0.40;99.90;;;;;;4771521;30;20211;-86
2023/01/29 05:44:02;;;;;;;18.53;12.00;;;-0.40;99.90;;;;;;4770132;30;20176;-87
2023/01/29 05:46:28;;;;;;;24.10;13.53;;;-0.30;99.90;;;;;;4771587;30;20184;-86
2023/01/29 05:48:53;;;;;;;25.80;13.77;;;-0.30;99.90;;;;;;4771209;30;20231;-88
2023/01/29 05:51:20;;;;;;;21.87;13.57;;;-0.40;99.90;;;;;;4771009;30;20196;-86
2023/01/29 05:53:46;;;;;;;22.13;12.77;;;-0.40;99.90;;;;;;4771339;30;20200;-88
2023/01/29 05:56:11;;;;;;;21.23;12.20;;;-0.40;99.90;;;;;;4771686;30;20216;-88
2023/01/29 05:58:37;;;;;;;20.80;13.17;;;-0.30;99.90;;;;;;4770261;30;20656;-86
2023/01/29 06:01:20;;;;;;;19.57;12.57;;;-0.30;99.90;;;;;;4771464;30;20321;-83
2023/01/29 06:03:46;;;;;;;20.60;12.40;;;-0.30;99.90;;;;;;4771212;30;20179;-88
2023/01/29 06:06:12;;;;;;;20.53;11.73;;;-0.20;99.90;;;;;;4771332;30;20245;-88
2023/01/29 06:08:38;;;;;;;17.77;11.20;;;-0.30;99.90;;;;;;4771387;30;20271;-81
2023/01/29 06:11:08;;;;;;;21.13;13.17;;;-0.20;99.90;;;;;;4769541;30;20192;-83
2023/01/29 06:13:33;;;;;;;21.37;12.93;;;-0.20;99.90;;;;;;4772708;30;20180;-86
2023/01/29 06:15:59;;;;;;;18.90;12.27;;;-0.20;99.90;;;;;;4773623;30;20199;-88
2023/01/29 06:18:25;;;;;;;21.93;12.60;;;-0.20;99.90;;;;;;4774438;30;20196;-88
2023/01/29 06:20:50;;;;;;;21.03;12.67;;;-0.10;99.90;;;;;;4773530;30;20306;-85
2023/01/29 06:23:16;;;;;;;18.37;12.57;;;-0.20;99.90;;;;;;4773313;30;20196;-87
2023/01/29 06:25:42;;;;;;;20.30;12.87;;;-0.10;99.90;;;;;;4773410;30;20196;-84
2023/01/29 06:28:07;;;;;;;18.97;12.27;;;-0.10;99.90;;;;;;4774291;30;20195;-87
2023/01/29 06:30:33;;;;;;;20.57;13.33;;;-0.10;99.90;;;;;;4774407;30;20184;-87
2023/01/29 06:33:00;;;;;;;22.20;13.00;;;-0.10;99.90;;;;;;4773789;30;20676;-85
2023/01/29 06:35:26;;;;;;;24.67;13.50;;;-0.10;99.90;;;;;;4772521;30;20192;-85
2023/01/29 06:37:53;;;;;;;20.47;13.53;;;-0.10;99.90;;;;;;4773873;30;20211;-87
2023/01/29 06:40:19;;;;;;;23.73;12.57;;;-0.10;99.90;;;;;;4773629;30;20219;-85
2023/01/29 06:42:45;;;;;;;21.27;12.60;;;-0.10;99.90;;;;;;4773536;30;20184;-83
2023/01/29 06:45:11;;;;;;;23.47;12.63;;;0.00;99.90;;;;;;4773759;30;20244;-88
2023/01/29 06:47:37;;;;;;;21.73;12.43;;;0.00;99.90;;;;;;4773645;30;20574;-85
2023/01/29 06:50:03;;;;;;;22.27;14.10;;;0.00;99.90;;;;;;4773447;30;20248;-84
2023/01/29 06:52:29;;;;;;;22.37;13.33;;;0.00;99.90;;;;;;4772144;30;20550;-82
2023/01/29 06:54:55;;;;;;;22.93;14.30;;;0.00;99.90;;;;;;4773183;30;20180;-86
2023/01/29 06:57:21;;;;;;;20.27;12.67;;;0.00;99.90;;;;;;4773536;30;20193;-84
2023/01/29 06:59:47;;;;;;;23.47;12.63;;;0.00;99.90;;;;;;4773237;30;20223;-81
2023/01/29 07:02:13;;;;;;;21.03;13.03;;;0.00;99.90;;;;;;4771895;30;20287;-87
2023/01/29 07:04:40;;;;;;;20.20;12.90;;;0.10;99.90;;;;;;4773430;30;20187;-85
2023/01/29 07:07:11;;;;;;;20.53;12.30;;;0.10;99.90;;;;;;4773324;30;20187;-84
2023/01/29 07:09:41;;;;;;;22.07;13.83;;;0.20;99.90;;;;;;4772117;30;20225;-87
2023/01/29 07:12:07;;;;;;;20.73;12.47;;;0.10;99.90;;;;;;4773153;30;20217;-81
2023/01/29 07:14:33;;;;;;;22.90;13.67;;;0.20;99.90;;;;;;4771824;30;20188;-80
2023/01/29 07:16:59;;;;;;;22.07;13.83;;;0.20;99.90;;;;;;4773264;30;20190;-82
2023/01/29 07:19:24;;;;;;;20.57;12.97;;;0.20;99.90;;;;;;4773127;30;20310;-84
2023/01/29 07:21:51;;;;;;;23.43;12.43;;;0.20;99.90;;;;;;4772569;30;20218;-83
2023/01/29 07:24:17;;;;;;;24.80;14.03;;;0.20;99.90;;;;;;4772427;30;20629;-83
2023/01/29 07:26:43;;;;;;;20.50;12.93;;;0.20;99.90;;;;;;4771633;30;20187;-82
2023/01/29 07:29:09;;;;;;;29.07;14.00;;;0.20;99.90;;;;;;4773470;30;20556;-86
2023/01/29 07:31:35;;;;;;;24.70;13.40;;;0.20;99.90;;;;;;4773052;30;20599;-83
2023/01/29 07:34:01;;;;;;;23.00;13.80;;;0.20;99.90;;;;;;4773095;30;20184;-88
2023/01/29 07:36:27;;;;;;;20.23;12.97;;;0.20;99.90;;;;;;4771900;30;20199;-82
2023/01/29 07:38:53;;;;;;;20.87;13.33;;;0.30;99.90;;;;;;4771428;30;20216;-86
2023/01/29 07:41:19;;;;;;;20.83;12.90;;;0.30;99.90;;;;;;4772209;30;20205;-86
2023/01/29 07:43:44;;;;;;;25.13;13.37;;;0.30;99.90;;;;;;4770975;30;20695;-83
2023/01/29 07:46:10;;;;;;;23.57;13.23;;;0.40;99.90;;;;;;4772348;30;20279;-83
2023/01/29 07:48:36;;;;;;;23.93;14.47;;;0.30;99.90;;;;;;4770541;30;20224;-83
2023/01/29 07:51:02;;;;;;;24.03;14.20;;;0.40;99.90;;;;;;4771766;30;20204;-81
2023/01/29 07:53:28;;;;;;;24.20;13.07;;;0.30;99.90;;;;;;4770088;30;20180;-82
2023/01/29 07:55:54;;;;;;;23.60;14.33;;;0.30;99.90;;;;;;4771429;30;20195;-82
2023/01/29 07:58:19;;;;;;;21.10;13.43;;;0.30;99.90;;;;;;4770293;30;20195;-81
2023/01/29 08:00:45;;;;;;;26.53;15.30;;;0.30;99.90;;;;;;4770640;30;20188;-83
2023/01/29 08:03:15;;;;;;;21.60;13.80;;;0.30;99.90;;;;;;4772068;30;20196;-83
2023/01/29 08:05:41;;;;;;;24.87;13.70;;;0.40;99.90;;;;;;4770697;30;20197;-83
2023/01/29 08:08:07;;;;;;;22.00;13.37;;;0.40;99.90;;;;;;4771910;30;20180;-83
2023/01/29 08:10:37;;;;;;;26.47;13.97;;;0.40;99.90;;;;;;4770790;30;20199;-86
2023/01/29 08:13:05;;;;;;;24.07;13.33;;;0.30;99.90;;;;;;4772046;29;20639;-87
2023/01/29 08:15:31;;;;;;;23.33;13.90;;;0.40;99.90;;;;;;4770876;30;20186;-82
2023/01/29 08:17:57;;;;;;;26.10;14.17;;;0.40;99.90;;;;;;4771349;30;20184;-82
2023/01/29 08:20:23;;;;;;;23.67;14.20;;;0.40;99.90;;;;;;4769288;30;20683;-82
2023/01/29 08:22:48;;;;;;;24.27;14.67;;;0.40;99.90;;;;;;4771241;30;20176;-84
2023/01/29 08:25:15;;;;;;;22.43;13.53;;;0.40;99.90;;;;;;4770418;30;20188;-84
2023/01/29 08:27:41;;;;;;;23.67;13.83;;;0.40;99.90;;;;;;4767290;30;20580;-81
2023/01/29 08:30:08;;;;;;;27.27;14.83;;;0.40;99.90;;;;;;4770010;30;20192;-81
2023/01/29 08:32:34;;;;;;;23.40;13.27;;;0.40;99.90;;;;;;4771068;30;20195;-82
2023/01/29 08:35:04;;;;;;;26.10;14.97;;;0.40;99.90;;;;;;4770579;30;20180;-81
2023/01/29 08:37:29;;;;;;;25.50;15.73;;;0.40;99.90;;;;;;4770618;30;20658;-82
2023/01/29 08:39:55;;;;;;;26.93;14.83;;;0.40;99.90;;;;;;4769716;30;20224;-83
2023/01/29 08:42:22;;;;;;;23.87;13.93;;;0.40;99.90;;;;;;4769083;30;20264;-81
2023/01/29 08:44:48;;;;;;;24.47;13.97;;;0.50;99.90;;;;;;4770442;30;20195;-86
2023/01/29 08:47:13;;;;;;;25.63;15.07;;;0.50;99.90;;;;;;4770758;30;20192;-85
2023/01/29 08:49:39;;;;;;;23.73;14.70;;;0.50;99.90;;;;;;4770723;30;20243;-83
2023/01/29 08:52:05;;;;;;;27.43;14.90;;;0.50;99.90;;;;;;4769949;30;20203;-82
2023/01/29 08:54:30;;;;;;;25.77;14.80;;;0.50;99.90;;;;;;4769882;30;20200;-80
2023/01/29 08:56:56;;;;;;;28.07;16.10;;;0.50;99.90;;;;;;4770458;30;20222;-82
2023/01/29 08:59:22;;;;;;;26.93;15.67;;;0.60;99.90;;;;;;4770014;30;20699;-82
2023/01/29 09:01:47;;;;;;;24.00;14.80;;;0.60;99.90;;;;;;4769935;30;20195;-85
2023/01/29 09:04:14;;;;;;;27.23;15.90;;;0.60;99.90;;;;;;4771429;30;20188;-86
2023/01/29 09:06:40;;;;;;;29.30;16.13;;;0.70;99.90;;;;;;4769854;30;20187;-85
2023/01/29 09:09:05;;;;;;;30.47;15.90;;;0.70;99.90;;;;;;4770246;30;20642;-87
2023/01/29 09:11:31;;;;;;;27.40;16.07;;;0.60;99.90;;;;;;4770551;30;20187;-83
2023/01/29 09:13:57;;;;;;;30.57;17.03;;;0.70;99.90;;;;;;4770929;30;20336;-82
2023/01/29 09:16:22;;;;;;;27.83;15.27;;;0.70;99.90;;;;;;4771191;30;20180;-84
2023/01/29 09:18:48;;;;;;;25.03;15.27;;;0.70;99.90;;;;;;4771196;30;20203;-86
2023/01/29 09:21:13;;;;;;;28.27;14.90;;;0.70;99.90;;;;;;4770990;30;20257;-86
2023/01/29 09:23:39;;;;;;;25.90;15.60;;;0.70;99.90;;;;;;4770795;30;20178;-81
2023/01/29 09:26:07;;;;;;;26.30;15.23;;;0.70;99.90;;;;;;4769730;30;20196;-84
2023/01/29 09:28:32;;;;;;;28.67;16.13;;;0.70;99.90;;;;;;4769725;30;20188;-83
2023/01/29 09:31:01;;;;;;;26.47;15.37;;;0.70;99.90;;;;;;4770730;30;20194;-84
2023/01/29 09:33:28;;;;;;;30.13;16.03;;;0.70;99.90;;;;;;4769366;30;20189;-81
2023/01/29 09:35:53;;;;;;;32.57;15.73;;;0.70;99.90;;;;;;4768482;30;20196;-80
2023/01/29 09:38:19;;;;;;;31.03;15.47;;;0.70;99.90;;;;;;4770001;30;20244;-83
2023/01/29 09:41:00;;;;;;;26.10;14.90;;;0.70;99.90;;;;;;4769557;30;20227;-80
2023/01/29 09:43:48;;;;;;;25.97;15.37;;;0.70;99.90;;;;;;4770126;30;20183;-82
2023/01/29 09:46:21;;;;;;;26.63;14.33;;;0.70;99.90;;;;;;4770078;30;20188;-81
2023/01/29 09:48:51;;;;;;;28.40;15.40;;;0.70;99.90;;;;;;4773717;30;20188;-81
2023/01/29 09:51:29;;;;;;;28.30;15.80;;;0.70;99.90;;;;;;4774152;30;20253;-80
2023/01/29 09:54:14;;;;;;;30.23;16.50;;;0.70;99.90;;;;;;4772941;30;20187;-81
2023/01/29 09:56:42;;;;;;;32.37;15.83;;;0.70;99.90;;;;;;4774091;30;20212;-81
2023/01/29 09:59:11;;;;;;;29.10;15.30;;;0.80;99.90;;;;;;4772952;30;20230;-81
2023/01/29 10:02:06;;;;;;;29.97;16.83;;;0.80;99.90;;;;;;4774223;30;20190;-80
2023/01/29 10:04:50;;;;;;;26.87;15.47;;;0.80;99.90;;;;;;4774209;30;20173;-80
2023/01/29 10:07:19;;;;;;;29.93;15.53;;;0.90;99.90;;;;;;4772574;30;20190;-82
2023/01/29 10:10:08;;;;;;;28.37;15.83;;;0.90;99.90;;;;;;4774170;30;20248;-83
2023/01/29 10:12:52;;;;;;;29.43;15.17;;;1.00;99.90;;;;;;4773737;30;20178;-83
2023/01/29 10:15:21;;;;;;;28.37;15.53;;;1.00;99.90;;;;;;4774025;30;20176;-84
2023/01/29 10:18:14;;;;;;;30.47;15.63;;;1.00;99.90;;;;;;4774090;30;20188;-84
2023/01/29 10:21:07;;;;;;;26.40;14.63;;;1.00;99.90;;;;;;4773831;30;20207;-83
2023/01/29 10:23:44;;;;;;;30.27;16.10;;;1.10;99.90;;;;;;4773762;30;20634;-83
2023/01/29 10:26:12;;;;;;;26.37;15.53;;;1.10;99.90;;;;;;4772451;30;20279;-83
2023/01/29 10:28:45;;;;;;;27.13;15.30;;;1.10;99.90;;;;;;4772761;30;20270;-83
2023/01/29 10:31:30;;;;;;;27.37;15.70;;;1.10;99.90;;;;;;4772612;30;20706;-83
2023/01/29 10:34:06;;;;;;;27.47;16.03;;;1.20;99.90;;;;;;4773479;30;20636;-83
2023/01/29 10:36:44;;;;;;;29.27;16.43;;;1.10;99.90;;;;;;4773341;30;20257;-79
2023/01/29 10:39:19;;;;;;;27.30;15.17;;;1.10;99.90;;;;;;4773500;30;20219;-83
2023/01/29 10:42:06;;;;;;;28.03;16.30;;;1.10;99.90;;;;;;4773518;30;20282;-83
2023/01/29 10:45:04;;;;;;;29.87;16.60;;;1.10;99.90;;;;;;4773360;30;20502;-81
2023/01/29 10:47:53;;;;;;;28.83;16.60;;;1.10;99.90;;;;;;4773377;30;20654;-80
2023/01/29 10:50:39;;;;;;;31.30;15.47;;;1.20;99.90;;;;;;4772891;30;20227;-80
2023/01/29 10:53:29;;;;;;;28.33;14.80;;;1.20;99.90;;;;;;4772892;30;20182;-82
2023/01/29 10:55:55;;;;;;;27.67;15.13;;;1.20;99.90;;;;;;4773129;30;20202;-81
2023/01/29 10:58:26;;;;;;;28.80;16.37;;;1.20;99.90;;;;;;4772697;30;20182;-79
2023/01/29 11:00:52;;;;;;;28.67;15.80;;;1.20;99.90;;;;;;4771653;30;20211;-80
2023/01/29 11:03:28;;;;;;;29.40;15.47;;;1.20;99.90;;;;;;4772862;30;20180;-80
2023/01/29 11:05:57;;;;;;;27.50;15.13;;;1.30;99.90;;;;;;4771762;30;20187;-80
2023/01/29 11:08:30;;;;;;;30.80;15.00;;;1.30;99.90;;;;;;4773357;30;20228;-83
2023/01/29 11:11:14;;;;;;;27.47;15.73;;;1.30;99.90;;;;;;4771671;30;20659;-80
2023/01/29 11:14:04;;;;;;;27.00;14.53;;;1.30;99.90;;;;;;4772610;30;20179;-80
2023/01/29 11:16:32;;;;;;;29.30;15.80;;;1.30;99.90;;;;;;4771780;30;20184;-80
2023/01/29 11:19:00;;;;;;;28.00;16.07;;;1.30;99.90;;;;;;4772728;30;20212;-81
2023/01/29 11:21:28;;;;;;;27.53;14.80;;;1.40;99.90;;;;;;4771711;30;20200;-80
2023/01/29 11:24:17;;;;;;;26.57;15.50;;;1.40;99.90;;;;;;4772582;30;20619;-81
2023/01/29 11:26:45;;;;;;;24.97;15.20;;;1.40;99.90;;;;;;4772768;30;20299;-80
2023/01/29 11:29:37;;;;;;;30.70;15.83;;;1.50;99.90;;;;;;4772609;30;20537;-80
2023/01/29 11:32:24;;;;;;;22.93;13.87;;;1.50;99.90;;;;;;4771353;30;20192;-82
2023/01/29 11:35:02;;;;;;;25.53;15.00;;;1.50;99.90;;;;;;4772179;30;20186;-80
2023/01/29 11:37:46;;;;;;;26.53;15.57;;;1.50;99.90;;;;;;4772616;30;20274;-78
2023/01/29 11:40:18;;;;;;;27.70;15.27;;;1.50;99.90;;;;;;4772444;30;20208;-79
2023/01/29 11:42:44;;;;;;;28.63;15.40;;;1.60;99.90;;;;;;4771888;30;20192;-80
2023/01/29 11:45:31;;;;;;;24.80;14.27;;;1.70;99.90;;;;;;4772093;30;20257;-82
2023/01/29 11:47:58;;;;;;;23.30;14.60;;;1.70;99.90;;;;;;4769940;30;20181;-81
2023/01/29 11:50:30;;;;;;;29.40;14.83;;;1.70;99.90;;;;;;4771349;30;20231;-79
2023/01/29 11:52:58;;;;;;;25.73;14.43;;;1.70;99.90;;;;;;4768688;30;20205;-82
2023/01/29 11:55:25;;;;;;;25.17;14.20;;;1.60;99.90;;;;;;4771229;30;20179;-83
2023/01/29 11:58:02;;;;;;;24.30;14.07;;;1.60;99.90;;;;;;4771199;30;20535;-84
2023/01/29 12:00:34;;;;;;;25.10;14.13;;;1.60;99.90;;;;;;4771925;30;20222;-83
2023/01/29 12:03:29;;;;;;;28.27;14.53;;;1.70;99.90;;;;;;4771425;30;20288;-82
2023/01/29 12:06:22;;;;;;;26.43;14.43;;;1.70;99.90;;;;;;4771820;30;20206;-82
2023/01/29 12:08:59;;;;;;;24.50;14.40;;;1.70;99.90;;;;;;4764568;30;20204;-81
2023/01/29 12:11:31;;;;;;;27.33;14.37;;;1.80;99.90;;;;;;4771600;30;20188;-80
2023/01/29 12:14:00;;;;;;;27.43;14.20;;;1.70;99.90;;;;;;4771366;30;20190;-83
2023/01/29 12:16:39;;;;;;;24.97;12.87;;;1.70;99.90;;;;;;4771043;30;20226;-80
2023/01/29 12:19:23;;;;;;;25.53;14.27;;;1.70;99.90;;;;;;4770238;30;20215;-80
2023/01/29 12:21:58;;;;;;;26.13;14.20;;;1.70;99.90;;;;;;4771717;30;20187;-80
2023/01/29 12:24:37;;;;;;;28.63;14.53;;;1.70;99.90;;;;;;4770498;30;20209;-80
2023/01/29 12:27:08;;;;;;;27.80;13.63;;;1.70;99.90;;;;;;4771702;30;20175;-81
2023/01/29 12:29:43;;;;;;;28.37;14.70;;;1.80;99.90;;;;;;4771688;30;20184;-82
2023/01/29 12:32:37;;;;;;;29.87;15.20;;;1.80;99.90;;;;;;4771571;30;20560;-80
2023/01/29 12:35:08;;;;;;;25.10;13.40;;;1.80;99.90;;;;;;4771618;30;20260;-82
2023/01/29 12:37:48;;;;;;;24.87;13.67;;;1.80;99.90;;;;;;4771484;30;20519;-80
2023/01/29 12:40:16;;;;;;;24.33;13.83;;;1.80;99.90;;;;;;4771344;30;20235;-84
2023/01/29 12:42:47;;;;;;;27.67;13.63;;;1.70;99.90;;;;;;4771219;30;20232;-83
2023/01/29 12:45:19;;;;;;;27.30;14.90;;;1.70;99.90;;;;;;4770125;30;20188;-81
2023/01/29 12:47:53;;;;;;;26.43;14.43;;;1.70;99.90;;;;;;4771247;30;20273;-80
2023/01/29 12:50:31;;;;;;;28.50;14.67;;;1.70;99.90;;;;;;4770516;30;20563;-81
2023/01/29 12:53:13;;;;;;;23.97;13.43;;;1.70;99.90;;;;;;4771122;30;20181;-82
2023/01/29 12:55:46;;;;;;;26.70;14.43;;;1.80;99.90;;;;;;4771172;30;20214;-81
2023/01/29 12:58:53;;;;;;;27.17;14.57;;;1.80;99.90;;;;;;4770413;30;20195;-82
2023/01/29 13:01:18;;;;;;;27.67;15.07;;;1.80;99.90;;;;;;4740545;30;20217;-81
2023/01/29 13:03:44;;;;;;;27.00;14.53;;;1.70;99.90;;;;;;4771004;30;20191;-82
2023/01/29 13:06:16;;;;;;;28.10;14.43;;;1.70;99.90;;;;;;4770882;30;20264;-81
2023/01/29 13:08:48;;;;;;;23.70;13.47;;;1.70;99.90;;;;;;4770963;30;20512;-81
2023/01/29 13:11:24;;;;;;;24.80;13.90;;;1.70;99.90;;;;;;4770495;30;20191;-82
2023/01/29 13:13:59;;;;;;;23.13;13.70;;;1.70;99.90;;;;;;4770667;30;20501;-83
2023/01/29 13:16:29;;;;;;;27.80;14.00;;;1.70;99.90;;;;;;4771018;30;20515;-82
2023/01/29 13:18:56;;;;;;;26.70;14.03;;;1.70;99.90;;;;;;4754777;30;20246;-81
2023/01/29 13:21:30;;;;;;;29.00;14.37;;;1.80;99.90;;;;;;4770326;30;20274;-81
2023/01/29 13:24:03;;;;;;;25.17;14.27;;;1.80;99.90;;;;;;4769919;30;20640;-80
2023/01/29 13:26:30;;;;;;;27.17;14.00;;;1.80;99.90;;;;;;4770753;30;20218;-81
2023/01/29 13:28:57;;;;;;;28.83;15.33;;;1.80;99.90;;;;;;4768816;30;20621;-80
2023/01/29 13:31:36;;;;;;;25.47;13.77;;;1.90;99.90;;;;;;4769425;30;20195;-83